Terminal Aerodrome Forecast
Issued by NWS

Home | Current Version | Previous Version | Text Only | Print | Product List | Glossary On
Versions: 1 2 3 4 5 6 7 8 9 10 11 12 13 14 15 16 17 18
000
FTUS41 KBOX 281133
TAFBED
TAF
KBED 281133Z 2812/2912 00000KT P6SM SCT100
     FM281400 32004KT P6SM SCT050
     FM282000 08006KT P6SM BKN060
     FM290900 03005KT P6SM SCT040 BKN070
     FM291000 03009KT P6SM BKN040=

USA.gov is the U.S. government's official web portal to all federal, state and local government web resources and services.